Time;durP1;ratioP1;P1;durP2;ratioP2;P2;SDS_P1;SDS_P2;PMS_P1;PMS_P2;Temp;Humidity;BMP_temperature;BMP_pressure;BME280_temperature;BME280_humidity;BME280_pressure;Samples;Min_cycle;Max_cycle;Signal;HPM_P1;HPM_P2
2023/08/10 00:00:49;;;;;;;4.90;3.10;;;;;;;16.04;100.00;99420.84;109453;1253;61786;-66
2023/08/10 00:03:17;;;;;;;6.80;3.20;;;;;;;16.00;100.00;99419.68;109529;1252;58967;-65
2023/08/10 00:05:44;;;;;;;8.70;3.40;;;;;;;15.99;100.00;99421.33;109469;1252;74715;-66
2023/08/10 00:08:12;;;;;;;5.60;2.70;;;;;;;15.97;100.00;99423.19;109497;1253;67846;-65
2023/08/10 00:10:39;;;;;;;4.60;3.40;;;;;;;15.96;100.00;99426.33;109441;1253;72747;-67
2023/08/10 00:13:08;;;;;;;5.80;3.20;;;;;;;15.96;100.00;99422.40;109451;1252;60124;-65
2023/08/10 00:15:36;;;;;;;6.10;2.90;;;;;;;15.97;100.00;99425.17;109402;1252;59074;-65
2023/08/10 00:18:04;;;;;;;7.30;2.80;;;;;;;15.97;100.00;99425.88;109545;1253;75138;-66
2023/08/10 00:20:32;;;;;;;6.10;2.40;;;;;;;15.98;100.00;99421.23;109532;1253;67621;-66
2023/08/10 00:22:59;;;;;;;4.40;2.90;;;;;;;15.98;100.00;99423.98;109464;1253;72674;-66
2023/08/10 00:25:26;;;;;;;5.80;2.70;;;;;;;15.98;100.00;99426.70;109401;1253;60423;-66
2023/08/10 00:27:55;;;;;;;5.90;2.60;;;;;;;15.97;100.00;99427.32;109512;1253;60021;-66
2023/08/10 00:30:23;;;;;;;3.20;2.30;;;;;;;15.95;100.00;99428.60;109470;1253;73421;-65
2023/08/10 00:32:51;;;;;;;4.30;2.40;;;;;;;15.93;100.00;99431.02;109485;1252;67889;-66
2023/08/10 00:35:18;;;;;;;4.10;2.50;;;;;;;15.90;100.00;99432.67;109357;1252;72709;-66
2023/08/10 00:37:46;;;;;;;4.60;2.90;;;;;;;15.90;100.00;99435.02;109508;1252;60050;-66
2023/08/10 00:40:13;;;;;;;5.90;2.80;;;;;;;15.92;100.00;99435.13;109413;1252;60590;-65
2023/08/10 00:42:41;;;;;;;5.30;2.70;;;;;;;15.93;100.00;99437.30;109505;1253;74641;-66
2023/08/10 00:45:09;;;;;;;4.30;2.50;;;;;;;15.89;100.00;99440.52;109477;1252;67900;-66
2023/08/10 00:47:36;;;;;;;6.40;2.70;;;;;;;15.82;100.00;99439.85;109407;1253;71983;-66
2023/08/10 00:50:04;;;;;;;4.90;2.90;;;;;;;15.78;100.00;99438.31;109431;1252;60902;-66
2023/08/10 00:52:33;;;;;;;5.50;2.80;;;;;;;15.76;100.00;99439.14;109401;1252;59018;-66
2023/08/10 00:55:01;;;;;;;5.40;3.00;;;;;;;15.74;100.00;99437.23;109456;1253;74579;-66
2023/08/10 00:57:28;;;;;;;7.60;2.80;;;;;;;15.70;100.00;99437.23;109516;1253;67547;-65
2023/08/10 00:59:56;;;;;;;6.30;2.70;;;;;;;15.64;100.00;99440.48;109420;1253;72626;-66
2023/08/10 01:02:23;;;;;;;5.60;2.80;;;;;;;15.55;100.00;99444.67;109342;1253;60047;-66
2023/08/10 01:04:51;;;;;;;7.70;2.80;;;;;;;15.47;100.00;99446.95;109235;1252;60166;-66
2023/08/10 01:07:33;;;;;;;5.60;2.70;;;;;;;15.42;100.00;99447.58;109461;1253;73355;-66
2023/08/10 01:10:19;;;;;;;5.40;2.90;;;;;;;15.40;100.00;99446.20;109540;1253;67909;-65
2023/08/10 01:12:53;;;;;;;4.30;2.70;;;;;;;15.41;100.00;99448.44;109428;1253;72657;-66
2023/08/10 01:15:32;;;;;;;4.00;2.40;;;;;;;15.43;100.00;99448.44;109279;1254;60056;-66
2023/08/10 01:17:59;;;;;;;6.00;2.90;;;;;;;15.48;100.00;99449.39;109296;1254;59065;-66
2023/08/10 01:20:27;;;;;;;5.60;2.80;;;;;;;15.53;100.00;99449.20;109356;1252;74079;-66
2023/08/10 01:22:57;;;;;;;5.00;2.70;;;;;;;15.59;100.00;99452.76;109288;1252;68054;-66
2023/08/10 01:25:27;;;;;;;5.20;3.00;;;;;;;15.60;100.00;99454.20;109471;1254;71390;-65
2023/08/10 01:27:54;;;;;;;3.50;2.50;;;;;;;15.59;100.00;99449.34;109401;1253;61682;-66
2023/08/10 01:30:22;;;;;;;4.20;2.50;;;;;;;15.62;100.00;99448.69;109496;1253;58985;-66
2023/08/10 01:32:53;;;;;;;3.00;2.40;;;;;;;15.69;100.00;99448.45;109388;1252;74623;-66
2023/08/10 01:35:20;;;;;;;9.60;3.30;;;;;;;15.73;100.00;99446.15;109462;1252;67905;-66
2023/08/10 01:37:47;;;;;;;3.40;2.40;;;;;;;15.74;100.00;99450.29;109443;1252;72698;-66
2023/08/10 01:40:16;;;;;;;4.10;2.90;;;;;;;15.72;100.00;99445.73;109420;1253;60049;-65
2023/08/10 01:42:44;;;;;;;6.70;2.80;;;;;;;15.69;100.00;99446.93;109369;1252;60094;-66
2023/08/10 01:45:12;;;;;;;6.60;2.40;;;;;;;15.66;100.00;99449.66;109310;1253;73302;-66
2023/08/10 01:47:54;;;;;;;3.90;2.70;;;;;;;15.61;100.00;99449.50;109520;1253;67320;-66
2023/08/10 01:50:22;;;;;;;4.80;3.30;;;;;;;15.52;100.00;99457.16;109302;1252;73147;-66
2023/08/10 01:53:11;;;;;;;3.80;2.80;;;;;;;15.43;100.00;99455.38;109323;1253;59113;-67
2023/08/10 01:55:39;;;;;;;5.00;3.10;;;;;;;15.32;100.00;99458.72;109292;1253;60028;-67
2023/08/10 01:58:06;;;;;;;6.70;2.70;;;;;;;15.24;100.00;99459.30;109366;1254;74638;-65
2023/08/10 02:00:37;;;;;;;5.40;3.90;;;;;;;15.17;100.00;99465.80;109510;1253;67772;-66
2023/08/10 02:03:04;;;;;;;12.60;3.40;;;;;;;15.09;100.00;99466.33;109366;1252;72372;-66
2023/08/10 02:05:33;;;;;;;4.60;2.90;;;;;;;15.00;100.00;99465.34;109456;1252;61751;-66
2023/08/10 02:08:00;;;;;;;4.80;2.90;;;;;;;14.93;100.00;99465.77;109397;1252;59044;-67
2023/08/10 02:10:28;;;;;;;6.50;3.00;;;;;;;14.90;100.00;99465.13;109414;1253;74665;-67
2023/08/10 02:12:55;;;;;;;4.60;3.20;;;;;;;14.91;100.00;99465.46;109402;1252;68530;-67
2023/08/10 02:15:23;;;;;;;4.30;3.00;;;;;;;14.92;100.00;99470.73;109514;1253;72032;-67
2023/08/10 02:17:50;;;;;;;4.10;2.20;;;;;;;14.91;100.00;99471.65;109320;1253;59019;-66
2023/08/10 02:20:18;;;;;;;3.70;2.80;;;;;;;14.90;100.00;99476.26;109541;1252;59023;-67
2023/08/10 02:22:47;;;;;;;3.80;2.80;;;;;;;14.87;100.00;99478.46;109467;1253;74701;-67
2023/08/10 02:25:14;;;;;;;3.20;2.60;;;;;;;14.82;100.00;99476.95;109453;1252;66371;-66
2023/08/10 02:27:42;;;;;;;3.80;2.90;;;;;;;14.77;100.00;99482.04;109445;1253;72682;-65
2023/08/10 02:30:10;;;;;;;6.00;2.70;;;;;;;14.77;100.00;99477.43;109496;1253;60386;-65
2023/08/10 02:32:38;;;;;;;4.00;2.60;;;;;;;14.81;100.00;99481.02;109464;1253;58958;-66
2023/08/10 02:35:05;;;;;;;5.60;2.90;;;;;;;14.87;100.00;99480.65;109515;1253;74625;-66
2023/08/10 02:37:33;;;;;;;4.40;2.70;;;;;;;14.92;100.00;99480.63;109543;1253;66438;-66
2023/08/10 02:40:04;;;;;;;3.30;2.50;;;;;;;14.97;100.00;99481.08;109482;1252;72682;-66
2023/08/10 02:42:32;;;;;;;3.50;2.90;;;;;;;14.98;100.00;99480.92;109472;1253;61720;-66
2023/08/10 02:44:59;;;;;;;2.70;2.40;;;;;;;14.98;100.00;99481.20;109504;1253;59958;-66
2023/08/10 02:47:27;;;;;;;4.20;2.50;;;;;;;14.96;100.00;99481.03;109457;1253;74576;-65
2023/08/10 02:49:54;;;;;;;2.40;2.00;;;;;;;14.98;100.00;99481.85;109452;1252;67633;-64
2023/08/10 02:52:22;;;;;;;2.30;2.10;;;;;;;15.00;100.00;99484.91;109464;1253;71555;-66
2023/08/10 02:54:49;;;;;;;4.00;2.30;;;;;;;15.04;100.00;99484.95;109503;1253;58941;-66
2023/08/10 02:57:16;;;;;;;4.70;2.20;;;;;;;15.08;100.00;99489.99;109390;1253;58899;-65
2023/08/10 02:59:44;;;;;;;5.10;2.20;;;;;;;15.10;100.00;99488.27;109462;1253;73366;-65
2023/08/10 03:02:15;;;;;;;6.60;2.50;;;;;;;15.10;100.00;99489.17;109485;1253;67692;-66
2023/08/10 03:04:44;;;;;;;6.80;2.50;;;;;;;15.10;100.00;99490.73;109418;1251;72939;-66
2023/08/10 03:07:12;;;;;;;4.60;2.50;;;;;;;15.13;100.00;99492.45;109320;1253;61926;-66
2023/08/10 03:09:41;;;;;;;2.40;2.20;;;;;;;15.15;100.00;99491.17;109520;1252;58916;-66
2023/08/10 03:12:10;;;;;;;6.00;2.80;;;;;;;15.19;100.00;99493.14;109437;1252;74819;-66
2023/08/10 03:14:37;;;;;;;2.80;2.40;;;;;;;15.25;100.00;99494.23;109453;1252;67553;-66
2023/08/10 03:17:05;;;;;;;4.70;2.80;;;;;;;15.29;100.00;99495.20;109484;1253;71436;-66
2023/08/10 03:19:32;;;;;;;3.90;3.00;;;;;;;15.32;100.00;99497.40;109542;1252;58975;-66
2023/08/10 03:22:00;;;;;;;3.80;2.60;;;;;;;15.31;100.00;99497.80;109350;1256;60047;-66
2023/08/10 03:24:28;;;;;;;5.30;3.40;;;;;;;15.31;100.00;99497.34;109456;1253;75734;-66
2023/08/10 03:26:55;;;;;;;5.80;2.10;;;;;;;15.31;100.00;99500.85;109365;1252;67617;-66
2023/08/10 03:29:23;;;;;;;3.00;2.10;;;;;;;15.33;100.00;99501.27;109397;1253;72698;-66
2023/08/10 03:31:50;;;;;;;4.90;2.40;;;;;;;15.36;100.00;99503.73;109434;1252;60019;-66
2023/08/10 03:34:18;;;;;;;3.90;2.60;;;;;;;15.40;100.00;99503.54;109496;1252;59965;-66
2023/08/10 03:36:45;;;;;;;3.20;2.40;;;;;;;15.48;100.00;99508.88;109386;1253;74750;-66
2023/08/10 03:39:12;;;;;;;4.40;3.00;;;;;;;15.56;100.00;99505.31;109347;1253;67603;-66
2023/08/10 03:41:40;;;;;;;3.30;2.10;;;;;;;15.62;100.00;99505.73;109516;1253;73221;-66
2023/08/10 03:44:07;;;;;;;3.00;2.20;;;;;;;15.65;100.00;99506.77;109405;1253;61809;-66
2023/08/10 03:46:35;;;;;;;3.30;2.20;;;;;;;15.70;100.00;99508.27;109482;1253;58889;-65
2023/08/10 03:49:03;;;;;;;3.80;2.50;;;;;;;15.78;100.00;99506.28;109413;1254;74637;-66
2023/08/10 03:51:30;;;;;;;3.50;2.30;;;;;;;15.88;100.00;99510.09;109388;1253;67610;-66
2023/08/10 03:53:57;;;;;;;3.00;2.30;;;;;;;16.03;100.00;99506.32;109504;1253;72975;-66
2023/08/10 03:56:25;;;;;;;3.00;2.30;;;;;;;16.24;100.00;99506.39;109472;1253;58983;-66
2023/08/10 03:58:52;;;;;;;3.30;2.70;;;;;;;16.50;100.00;99502.02;109370;1253;58914;-66
2023/08/10 04:01:22;;;;;;;5.80;2.60;;;;;;;16.81;100.00;99501.43;109362;1253;74626;-66
2023/08/10 04:03:49;;;;;;;5.20;2.50;;;;;;;17.03;100.00;99497.48;109332;1252;67623;-66
2023/08/10 04:06:17;;;;;;;6.70;2.80;;;;;;;17.16;100.00;99497.52;109296;1252;72716;-66
2023/08/10 04:08:44;;;;;;;4.60;2.80;;;;;;;17.26;100.00;99498.47;109476;1252;61671;-66
2023/08/10 04:11:12;;;;;;;3.50;2.50;;;;;;;17.31;100.00;99495.65;109476;1253;59999;-67
2023/08/10 04:13:39;;;;;;;3.60;2.80;;;;;;;17.37;100.00;99497.86;109473;1253;73620;-65
2023/08/10 04:16:06;;;;;;;6.00;2.50;;;;;;;17.54;100.00;99498.50;109451;1253;67583;-65
2023/08/10 04:18:35;;;;;;;3.10;2.40;;;;;;;17.85;100.00;99494.98;109295;1254;72722;-65
2023/08/10 04:21:03;;;;;;;2.80;2.40;;;;;;;18.25;100.00;99496.45;109417;1252;59026;-67
2023/08/10 04:23:30;;;;;;;3.70;2.20;;;;;;;18.65;100.00;99495.09;109471;1253;60025;-67
2023/08/10 04:25:58;;;;;;;7.70;3.20;;;;;;;19.08;100.00;99491.08;109469;1253;74584;-65
2023/08/10 04:28:26;;;;;;;7.20;3.20;;;;;;;19.50;100.00;99494.33;109498;1252;67906;-66
2023/08/10 04:30:53;;;;;;;5.20;2.50;;;;;;;19.84;100.00;99487.31;109496;1253;71533;-66
2023/08/10 04:33:21;;;;;;;6.30;3.60;;;;;;;20.06;100.00;99486.73;109455;1252;60061;-67
2023/08/10 04:35:48;;;;;;;4.80;2.60;;;;;;;20.22;100.00;99485.88;109524;1252;60024;-66
2023/08/10 04:38:16;;;;;;;5.50;2.70;;;;;;;20.45;100.00;99487.34;109479;1253;74616;-66
2023/08/10 04:40:43;;;;;;;4.00;2.70;;;;;;;20.60;100.00;99489.58;109566;1253;67919;-66
2023/08/10 04:43:11;;;;;;;7.50;3.00;;;;;;;20.61;100.00;99490.90;109504;1253;71416;-66
2023/08/10 04:45:38;;;;;;;6.90;2.80;;;;;;;20.59;100.00;99490.27;109436;1253;60012;-66
2023/08/10 04:48:07;;;;;;;5.50;2.70;;;;;;;20.59;100.00;99490.27;109475;1252;59970;-66
2023/08/10 04:50:34;;;;;;;5.30;2.50;;;;;;;20.57;100.00;99492.38;109534;1252;74817;-66
2023/08/10 04:53:02;;;;;;;5.70;2.80;;;;;;;20.61;100.00;99492.59;109466;1253;67577;-67
2023/08/10 04:55:30;;;;;;;5.00;2.80;;;;;;;20.65;100.00;99495.53;109491;1253;71445;-66
2023/08/10 04:57:57;;;;;;;2.50;2.30;;;;;;;20.67;100.00;99492.63;109526;1252;58996;-66
2023/08/10 05:00:25;;;;;;;4.00;2.40;;;;;;;20.69;100.00;99493.16;109481;1253;60088;-66
2023/08/10 05:02:53;;;;;;;7.30;2.70;;;;;;;20.71;100.00;99493.30;109486;1253;74647;-66
2023/08/10 05:05:20;;;;;;;2.80;2.30;;;;;;;20.72;100.00;99491.98;109523;1253;67928;-67
2023/08/10 05:07:48;;;;;;;4.40;2.30;;;;;;;20.79;100.00;99495.59;109430;1252;72701;-67
2023/08/10 05:10:16;;;;;;;4.30;2.50;;;;;;;20.98;100.00;99493.77;109535;1252;60999;-65
2023/08/10 05:12:43;;;;;;;3.30;2.50;;;;;;;21.17;100.00;99490.41;109319;1252;195640;-66
2023/08/10 05:15:14;;;;;;;2.30;2.10;;;;;;;21.28;100.00;99490.31;109442;1253;74678;-65
2023/08/10 05:17:41;;;;;;;4.00;2.40;;;;;;;21.38;100.00;99489.40;109438;1253;66621;-67
2023/08/10 05:20:12;;;;;;;4.70;2.10;;;;;;;21.44;100.00;99492.77;109537;1252;71244;-67
2023/08/10 05:22:40;;;;;;;5.20;2.20;;;;;;;21.44;100.00;99491.73;109521;1252;60136;-66
2023/08/10 05:25:09;;;;;;;4.30;2.30;;;;;;;21.43;100.00;99492.14;109457;1253;58913;-65
2023/08/10 05:27:37;;;;;;;4.10;2.20;;;;;;;21.56;100.00;99495.06;109492;1253;74758;-65
2023/08/10 05:30:11;;;;;;;6.30;2.50;;;;;;;21.89;100.00;99491.81;109494;1252;67077;-66
2023/08/10 05:32:43;;;;;;;5.30;2.00;;;;;;;22.31;100.00;99494.02;109435;1252;71220;-66
2023/08/10 05:35:13;;;;;;;3.20;2.20;;;;;;;22.80;100.00;99497.23;109446;1252;60036;-67
2023/08/10 05:37:40;;;;;;;4.80;2.70;;;;;;;23.18;100.00;99498.90;109421;1252;58920;-65
2023/08/10 05:40:09;;;;;;;3.80;2.70;;;;;;;23.45;100.00;99494.45;109430;1253;73457;-66
2023/08/10 05:42:38;;;;;;;4.00;2.60;;;;;;;23.66;100.00;99491.91;109410;1253;66548;-65
2023/08/10 05:45:08;;;;;;;5.70;2.10;;;;;;;23.71;100.00;99495.01;109436;1252;71447;-67
2023/08/10 05:47:36;;;;;;;4.60;1.70;;;;;;;23.65;100.00;99495.15;109419;1253;58981;-66
2023/08/10 05:50:04;;;;;;;3.10;1.70;;;;;;;23.56;100.00;99493.91;109478;1252;58894;-67
2023/08/10 05:52:32;;;;;;;2.90;2.10;;;;;;;23.57;100.00;99493.48;109492;1252;74717;-66
2023/08/10 05:54:59;;;;;;;4.60;1.80;;;;;;;23.72;100.00;99494.59;109456;1252;66467;-68
2023/08/10 05:57:26;;;;;;;5.60;2.00;;;;;;;24.01;100.00;99492.77;109432;1254;73267;-65
2023/08/10 05:59:54;;;;;;;2.50;1.70;;;;;;;24.41;100.00;99491.20;109543;1253;59014;-68
2023/08/10 06:02:22;;;;;;;1.90;1.80;;;;;;;24.84;99.37;99488.88;109467;1252;58910;-66
2023/08/10 06:04:49;;;;;;;4.00;1.60;;;;;;;25.22;96.18;99491.65;109445;1253;74059;-67
2023/08/10 06:07:16;;;;;;;3.40;1.90;;;;;;;25.55;92.78;99488.39;109406;1252;68031;-67
2023/08/10 06:09:44;;;;;;;6.50;2.50;;;;;;;25.85;89.60;99489.95;109472;1254;72701;-67
2023/08/10 06:12:12;;;;;;;3.20;1.80;;;;;;;26.18;87.60;99486.58;109396;1254;58973;-66
2023/08/10 06:14:39;;;;;;;2.00;1.70;;;;;;;26.59;85.56;99488.45;109442;1253;58959;-65
2023/08/10 06:17:07;;;;;;;3.20;2.10;;;;;;;26.96;82.95;99487.49;109482;1253;73370;-66
2023/08/10 06:19:34;;;;;;;3.50;1.80;;;;;;;27.24;79.05;99487.35;109483;1252;66112;-66
2023/08/10 06:22:02;;;;;;;4.20;2.10;;;;;;;27.34;76.20;99485.68;109419;1253;72807;-65
2023/08/10 06:24:31;;;;;;;4.10;1.60;;;;;;;27.36;75.90;99483.71;109442;1253;60019;-67
2023/08/10 06:26:59;;;;;;;3.60;1.90;;;;;;;27.33;77.39;99487.00;109532;1252;60031;-66
2023/08/10 06:29:27;;;;;;;2.40;2.00;;;;;;;27.24;76.19;99489.98;109401;1252;73776;-64
2023/08/10 06:31:54;;;;;;;5.10;2.10;;;;;;;27.09;76.37;99491.29;109482;1253;66879;-64
2023/08/10 06:34:22;;;;;;;6.20;2.10;;;;;;;27.06;77.26;99492.11;109417;1253;72980;-66
2023/08/10 06:36:52;;;;;;;4.60;2.20;;;;;;;27.28;78.43;99495.38;109460;1253;61083;-64
2023/08/10 06:39:19;;;;;;;4.10;2.20;;;;;;;27.64;77.16;99492.30;109521;1252;59974;-64
2023/08/10 06:41:46;;;;;;;2.80;2.10;;;;;;;27.97;74.34;99490.20;109475;1252;74661;-63
2023/08/10 06:44:14;;;;;;;5.10;1.90;;;;;;;28.28;70.00;99491.20;109444;1253;67633;-63
2023/08/10 06:46:41;;;;;;;2.20;1.70;;;;;;;28.56;67.82;99488.09;109454;1253;72693;-65
2023/08/10 06:49:09;;;;;;;4.20;1.80;;;;;;;28.81;62.31;99486.72;109484;1253;58866;-65
2023/08/10 06:51:36;;;;;;;2.20;1.70;;;;;;;28.86;60.87;99487.06;109449;1254;58942;-63
2023/08/10 06:54:04;;;;;;;1.50;1.40;;;;;;;28.98;60.04;99486.00;109466;1253;73367;-63
2023/08/10 06:56:31;;;;;;;2.70;1.50;;;;;;;29.18;58.85;99486.88;109469;1251;70119;-65
2023/08/10 06:58:58;;;;;;;2.00;1.60;;;;;;;29.44;56.53;99487.85;109433;1252;72769;-65
2023/08/10 07:01:28;;;;;;;2.00;1.40;;;;;;;29.74;53.43;99485.37;109401;1252;59755;-65
2023/08/10 07:03:56;;;;;;;1.80;1.50;;;;;;;29.82;51.97;99485.27;109453;1252;58836;-66
2023/08/10 07:06:23;;;;;;;1.50;1.40;;;;;;;29.77;50.63;99491.48;109376;1253;73427;-66
2023/08/10 07:08:52;;;;;;;1.80;1.50;;;;;;;29.54;49.09;99491.48;109398;1253;67715;-66
2023/08/10 07:11:20;;;;;;;3.70;1.60;;;;;;;29.27;48.77;99491.48;109457;1252;72660;-66
2023/08/10 07:13:48;;;;;;;1.80;1.70;;;;;;;29.21;49.63;99493.85;109451;1252;59084;-65
2023/08/10 07:16:16;;;;;;;6.20;1.70;;;;;;;29.42;49.96;99496.75;109419;1251;60008;-67
2023/08/10 07:18:44;;;;;;;2.70;1.10;;;;;;;29.64;48.16;99500.74;109480;1253;73246;-67
2023/08/10 07:21:12;;;;;;;2.60;1.20;;;;;;;29.67;46.59;99501.25;109425;1253;66509;-66
2023/08/10 07:23:39;;;;;;;3.80;1.30;;;;;;;29.67;47.16;99503.98;109498;1253;71441;-65
2023/08/10 07:26:06;;;;;;;2.40;1.60;;;;;;;29.87;46.88;99503.14;109444;1252;59254;-65
2023/08/10 07:28:35;;;;;;;2.60;1.70;;;;;;;30.08;46.45;99502.07;109453;1253;59295;-66
2023/08/10 07:31:03;;;;;;;1.90;1.70;;;;;;;30.33;46.14;99500.42;109445;1253;74321;-66
2023/08/10 07:33:30;;;;;;;2.40;1.10;;;;;;;30.50;45.97;99504.02;109560;1253;66306;-66
2023/08/10 07:35:59;;;;;;;1.80;1.70;;;;;;;30.55;43.82;99502.33;109468;1254;71330;-67
2023/08/10 07:38:26;;;;;;;4.20;1.30;;;;;;;30.49;43.87;99497.55;109481;1252;58983;-71
2023/08/10 07:40:54;;;;;;;4.50;1.40;;;;;;;30.41;43.68;99503.05;109528;1252;59629;-68
2023/08/10 07:43:21;;;;;;;3.50;1.20;;;;;;;30.44;43.07;99501.53;109471;1254;74644;-65
2023/08/10 07:45:48;;;;;;;2.60;1.30;;;;;;;30.47;42.91;99496.04;109490;1253;67734;-65
2023/08/10 07:48:16;;;;;;;1.80;1.40;;;;;;;30.56;42.88;99498.90;109449;1253;71380;-66
2023/08/10 07:50:43;;;;;;;4.10;1.40;;;;;;;30.67;42.92;99495.96;109489;1253;60054;-65
2023/08/10 07:53:11;;;;;;;1.50;1.10;;;;;;;30.76;42.46;99497.23;109524;1252;60109;-65
2023/08/10 07:55:38;;;;;;;1.60;1.10;;;;;;;30.74;41.97;99500.34;109473;1252;72953;-66
2023/08/10 07:58:06;;;;;;;3.00;1.40;;;;;;;30.58;41.92;99492.94;109470;1253;66836;-64
2023/08/10 08:00:35;;;;;;;3.10;1.10;;;;;;;30.59;42.58;99495.52;109462;1253;73225;-66
2023/08/10 08:03:03;;;;;;;1.30;0.90;;;;;;;30.85;42.53;99498.34;109439;1253;60593;-66
2023/08/10 08:05:30;;;;;;;1.40;1.00;;;;;;;31.11;42.08;99500.34;109455;1252;60058;-66
2023/08/10 08:07:58;;;;;;;1.10;1.00;;;;;;;31.23;40.72;99496.59;109465;1253;73090;-65
2023/08/10 08:10:25;;;;;;;1.60;1.00;;;;;;;31.14;40.11;99496.55;109533;1252;67601;-65
2023/08/10 08:12:53;;;;;;;1.30;1.00;;;;;;;30.99;40.28;99495.40;109482;1252;71402;-65
2023/08/10 08:15:21;;;;;;;1.60;1.10;;;;;;;30.85;41.41;99496.70;109515;1253;60128;-66
2023/08/10 08:18:26;;;;;;;5.50;1.50;;;;;;;30.96;40.99;99494.36;109478;1253;60001;-64
2023/08/10 08:20:53;;;;;;;1.80;1.30;;;;;;;31.14;39.44;99495.08;109509;1253;74664;-65
2023/08/10 08:23:20;;;;;;;1.80;1.00;;;;;;;31.04;39.36;99498.89;109548;1253;67935;-66
2023/08/10 08:25:48;;;;;;;1.00;0.90;;;;;;;30.98;40.20;99495.10;109500;1254;71871;-65
2023/08/10 08:28:16;;;;;;;1.10;1.00;;;;;;;31.11;38.55;99495.39;109406;1253;59059;-64
2023/08/10 08:30:43;;;;;;;2.10;1.00;;;;;;;31.23;38.46;99499.19;109467;1253;58997;-65
2023/08/10 08:33:12;;;;;;;0.90;0.80;;;;;;;31.38;38.38;99501.40;109460;1253;75528;-65
2023/08/10 08:35:45;;;;;;;0.80;0.70;;;;;;;31.48;37.20;99498.20;109540;1252;67775;-66
2023/08/10 08:38:17;;;;;;;1.30;1.00;;;;;;;31.49;35.90;99498.52;109510;1253;72704;-64
2023/08/10 08:40:45;;;;;;;1.10;1.00;;;;;;;31.41;36.25;99497.60;109488;1253;59346;-63
2023/08/10 08:43:12;;;;;;;1.10;1.00;;;;;;;31.34;36.30;99495.77;109320;1254;58997;-64
2023/08/10 08:45:40;;;;;;;1.90;0.80;;;;;;;31.32;36.72;99496.53;109472;1253;73409;-65
2023/08/10 08:48:07;;;;;;;1.80;0.80;;;;;;;31.43;35.04;99501.36;109500;1252;68191;-64
2023/08/10 08:50:36;;;;;;;2.30;0.70;;;;;;;31.45;34.95;99499.41;109482;1253;71970;-64
2023/08/10 08:53:04;;;;;;;0.60;0.60;;;;;;;31.40;34.12;99497.52;109393;1252;60046;-64
2023/08/10 08:55:32;;;;;;;0.70;0.60;;;;;;;31.33;34.35;99502.94;109294;1252;59121;-65
2023/08/10 08:57:59;;;;;;;1.10;0.70;;;;;;;31.29;33.70;99494.67;109407;1253;73918;-65
2023/08/10 09:00:27;;;;;;;1.60;0.70;;;;;;;31.30;33.72;99495.08;109447;1253;68083;-66
2023/08/10 09:02:54;;;;;;;0.70;0.70;;;;;;;31.36;33.66;99495.33;109451;1257;72671;-63
2023/08/10 09:05:21;;;;;;;1.60;0.80;;;;;;;31.48;33.41;99492.14;109280;1253;59045;-65
2023/08/10 09:07:50;;;;;;;2.40;1.10;;;;;;;31.54;34.84;99490.81;109528;1252;59998;-65
2023/08/10 09:10:19;;;;;;;4.10;1.60;;;;;;;31.61;34.87;99492.14;109498;1253;75050;-64
2023/08/10 09:12:46;;;;;;;1.30;0.90;;;;;;;31.60;35.60;99491.29;109567;1252;67521;-61
2023/08/10 09:15:17;;;;;;;1.40;0.90;;;;;;;31.46;35.93;99488.98;109506;1252;72640;-63
2023/08/10 09:17:48;;;;;;;1.00;0.80;;;;;;;31.41;34.39;99486.83;109496;1252;60146;-64
2023/08/10 09:20:26;;;;;;;1.10;0.90;;;;;;;31.46;34.44;99489.98;109482;1253;59344;-64
2023/08/10 09:22:56;;;;;;;4.30;1.90;;;;;;;31.52;34.61;99488.16;109422;1254;73519;-63
2023/08/10 09:25:24;;;;;;;3.10;0.80;;;;;;;31.59;34.07;99498.19;109493;1253;66607;-63
2023/08/10 09:27:52;;;;;;;1.80;0.70;;;;;;;31.55;33.98;99497.29;109486;1253;72655;-62
2023/08/10 09:30:19;;;;;;;1.70;0.90;;;;;;;31.43;33.80;99496.52;109488;1253;60095;-61
2023/08/10 09:32:47;;;;;;;1.40;1.00;;;;;;;31.34;34.56;99494.67;109533;1253;60033;-65
2023/08/10 09:35:18;;;;;;;0.90;0.90;;;;;;;31.49;34.44;99493.11;109434;1254;74582;-63
2023/08/10 09:37:46;;;;;;;2.10;1.00;;;;;;;31.66;33.34;99494.34;109536;1252;66327;-64
2023/08/10 09:40:15;;;;;;;1.60;1.00;;;;;;;31.83;33.39;99496.13;109469;1253;72633;-62
2023/08/10 09:42:42;;;;;;;0.90;0.70;;;;;;;32.00;33.01;99497.78;109493;1252;60276;-63
2023/08/10 09:45:11;;;;;;;1.00;0.80;;;;;;;31.83;32.62;99497.94;109539;1253;59006;-63
2023/08/10 09:47:42;;;;;;;0.90;0.80;;;;;;;31.82;33.20;99499.89;109414;1253;74503;-63
2023/08/10 09:50:12;;;;;;;1.90;0.90;;;;;;;31.82;33.22;99496.08;109494;1253;67628;-63
2023/08/10 09:52:40;;;;;;;1.10;0.90;;;;;;;31.96;33.44;99497.48;109469;1253;72201;-62
2023/08/10 09:55:08;;;;;;;1.00;0.70;;;;;;;32.19;32.37;99496.08;109497;1254;59705;-64
2023/08/10 09:57:44;;;;;;;1.70;1.00;;;;;;;32.22;31.63;99494.27;109506;1253;60063;-65
2023/08/10 10:00:19;;;;;;;1.00;0.80;;;;;;;32.30;32.57;99495.91;109474;1254;74655;-62
2023/08/10 10:02:47;;;;;;;0.70;0.70;;;;;;;32.25;32.85;99489.81;109557;1253;67574;-62
2023/08/10 10:05:17;;;;;;;1.30;1.10;;;;;;;32.35;33.19;99488.38;109438;1253;72735;-61
2023/08/10 10:08:06;;;;;;;2.10;0.80;;;;;;;32.62;32.13;99487.33;109537;1254;60065;-64
2023/08/10 10:10:35;;;;;;;1.10;1.00;;;;;;;32.36;31.39;99488.63;109491;1254;58999;-62
2023/08/10 10:13:06;;;;;;;1.70;0.90;;;;;;;31.85;31.77;99490.33;109481;1252;75059;-60
2023/08/10 10:15:34;;;;;;;1.00;1.00;;;;;;;31.55;33.44;99487.94;109351;1252;67195;-63
2023/08/10 10:18:03;;;;;;;0.90;0.90;;;;;;;31.63;33.97;99479.95;109298;1254;71536;-63
2023/08/10 10:20:30;;;;;;;1.30;0.90;;;;;;;31.78;33.19;99478.41;109335;1252;60108;-63
2023/08/10 10:22:58;;;;;;;1.00;0.80;;;;;;;31.58;33.66;99479.45;109495;1253;59026;-61
2023/08/10 10:25:25;;;;;;;1.10;0.80;;;;;;;31.26;34.01;99480.77;109529;1254;74760;-64
2023/08/10 10:27:52;;;;;;;2.30;0.90;;;;;;;30.74;34.51;99478.23;109506;1252;66348;-61
2023/08/10 10:30:22;;;;;;;1.50;0.90;;;;;;;30.24;35.47;99479.15;109501;1253;72290;-63
2023/08/10 10:32:50;;;;;;;2.10;1.10;;;;;;;29.88;37.02;99477.35;109428;1253;60725;-65
2023/08/10 10:35:23;;;;;;;1.10;1.00;;;;;;;29.56;37.59;99482.03;109488;1254;59984;-61
2023/08/10 10:37:55;;;;;;;2.40;1.00;;;;;;;29.19;39.15;99479.58;109426;1253;74877;-64
2023/08/10 10:40:23;;;;;;;0.80;0.80;;;;;;;29.12;39.88;99482.98;109484;1254;67917;-61
2023/08/10 10:43:03;;;;;;;2.80;0.90;;;;;;;29.07;39.80;99478.86;109522;1254;72805;-63
2023/08/10 10:45:39;;;;;;;2.80;1.00;;;;;;;29.06;40.53;99478.62;109536;1252;58968;-63
2023/08/10 10:48:06;;;;;;;;;;;;;;;29.06;39.70;99476.81;109538;1253;58969;-65
2023/08/10 10:50:35;;;;;;;1.30;0.90;;;;;;;29.05;39.81;99478.90;109455;1254;74632;-60
2023/08/10 10:53:04;;;;;;;1.00;0.90;;;;;;;28.96;39.57;99475.28;109518;1253;66327;-62
2023/08/10 10:55:35;;;;;;;2.70;1.10;;;;;;;28.68;40.57;99474.42;109493;1252;72702;-63
2023/08/10 10:58:03;;;;;;;1.40;1.20;;;;;;;28.50;40.83;99476.80;109511;1254;60086;-63
2023/08/10 11:00:32;;;;;;;0.90;0.90;;;;;;;28.32;40.33;99470.73;109508;1255;59120;-64
2023/08/10 11:03:01;;;;;;;1.20;1.10;;;;;;;28.25;40.75;99466.67;109500;1254;75188;-63
2023/08/10 11:05:28;;;;;;;3.40;1.10;;;;;;;28.28;41.07;99475.63;109208;1254;66508;-63
2023/08/10 11:07:57;;;;;;;4.50;1.20;;;;;;;28.22;41.76;99468.33;109485;1254;72790;-62
2023/08/10 11:10:24;;;;;;;1.80;1.20;;;;;;;28.13;43.41;99469.33;109219;1254;60095;-63
2023/08/10 11:12:53;;;;;;;3.20;1.90;;;;;;;28.11;44.14;99469.57;109555;1253;60020;-66
2023/08/10 11:15:22;;;;;;;1.70;1.10;;;;;;;28.06;44.53;99472.61;109444;1254;74635;-65
2023/08/10 11:17:53;;;;;;;1.40;0.90;;;;;;;27.99;44.74;99470.02;109398;1254;67749;-64
2023/08/10 11:20:21;;;;;;;2.30;1.20;;;;;;;27.94;44.41;99468.73;109467;1254;72260;-65
2023/08/10 11:22:49;;;;;;;2.50;1.20;;;;;;;27.78;44.36;99470.63;109461;1254;58997;-66
2023/08/10 11:25:18;;;;;;;1.20;1.10;;;;;;;27.50;43.48;99466.18;109541;1253;60018;-67
2023/08/10 11:27:47;;;;;;;1.70;1.10;;;;;;;27.28;44.30;99468.84;109547;1252;74627;-64